createdAt,value
2023-02-19T00:00:18.634Z,15.67
2023-02-19T00:02:59.205Z,15.50
2023-02-19T00:05:40.602Z,16.13
2023-02-19T00:08:19.668Z,15.90
2023-02-19T00:10:55.513Z,16.83
2023-02-19T00:13:31.390Z,15.97
2023-02-19T00:16:12.087Z,16.00
2023-02-19T00:18:48.274Z,15.27
2023-02-19T00:21:27.520Z,15.30
2023-02-19T00:24:03.934Z,15.77
2023-02-19T00:26:41.363Z,15.83
2023-02-19T00:32:17.125Z,15.70
2023-02-19T00:34:53.233Z,13.17
2023-02-19T00:37:30.162Z,14.27
2023-02-19T00:40:06.673Z,13.80
2023-02-19T00:42:43.264Z,13.77
2023-02-19T00:45:19.664Z,13.97
2023-02-19T00:47:58.518Z,13.43
2023-02-19T00:50:34.998Z,13.53
2023-02-19T00:53:11.186Z,14.07
2023-02-19T00:55:47.827Z,13.07
2023-02-19T00:58:23.940Z,13.10
2023-02-19T01:01:00.045Z,13.30
2023-02-19T01:03:39.011Z,12.43
2023-02-19T01:06:17.214Z,12.67
2023-02-19T01:08:54.080Z,11.87
2023-02-19T01:11:33.301Z,12.03
2023-02-19T01:14:10.760Z,13.73
2023-02-19T01:16:47.570Z,12.97
2023-02-19T01:19:25.838Z,13.47
2023-02-19T01:22:05.698Z,11.60
2023-02-19T01:24:41.892Z,12.20
2023-02-19T01:27:19.886Z,12.13
2023-02-19T01:29:56.079Z,13.50
2023-02-19T01:32:33.886Z,12.63
2023-02-19T01:35:15.807Z,12.27
2023-02-19T01:37:51.995Z,12.13
2023-02-19T01:40:28.478Z,12.37
2023-02-19T01:43:05.861Z,12.60
2023-02-19T01:45:44.545Z,11.73
2023-02-19T01:48:26.171Z,11.30
2023-02-19T01:51:09.031Z,11.70
2023-02-19T01:53:50.224Z,11.37
2023-02-19T01:56:28.222Z,12.27
2023-02-19T01:59:05.426Z,10.27
2023-02-19T02:01:42.513Z,11.07
2023-02-19T02:04:22.386Z,10.83
2023-02-19T02:07:04.540Z,11.73
2023-02-19T02:09:56.100Z,11.20
2023-02-19T02:12:36.699Z,11.93
2023-02-19T02:15:14.006Z,11.83
2023-02-19T02:17:57.825Z,11.80
2023-02-19T02:21:06.709Z,12.23
2023-02-19T02:24:06.716Z,12.20
2023-02-19T02:26:53.337Z,12.10
2023-02-19T02:30:02.844Z,11.87
2023-02-19T02:32:55.249Z,12.40
2023-02-19T02:35:38.435Z,13.23
2023-02-19T02:38:18.958Z,11.60
2023-02-19T02:40:59.933Z,12.07
2023-02-19T02:43:39.031Z,11.90
2023-02-19T02:46:27.901Z,11.07
2023-02-19T02:49:10.063Z,11.27
2023-02-19T02:51:51.651Z,11.23
2023-02-19T02:54:52.353Z,10.23
2023-02-19T02:57:31.494Z,10.10
2023-02-19T03:00:08.932Z,10.13
2023-02-19T03:02:45.976Z,10.07
2023-02-19T03:05:44.760Z,9.80
2023-02-19T03:08:27.144Z,9.83
2023-02-19T03:11:27.648Z,9.30
2023-02-19T03:14:30.430Z,9.90
2023-02-19T03:17:29.670Z,10.07
2023-02-19T03:20:09.742Z,9.90
2023-02-19T03:22:58.669Z,8.77
2023-02-19T03:25:55.481Z,9.53
2023-02-19T03:28:59.288Z,9.17
2023-02-19T03:31:39.978Z,9.50
2023-02-19T03:34:21.442Z,9.30
2023-02-19T03:37:05.987Z,10.10
2023-02-19T03:39:48.996Z,9.00
2023-02-19T03:42:41.367Z,9.80
2023-02-19T03:45:34.969Z,9.73
2023-02-19T03:48:25.653Z,9.60
2023-02-19T03:51:11.204Z,10.73
2023-02-19T03:53:58.879Z,10.27
2023-02-19T03:56:45.591Z,10.13
2023-02-19T03:59:31.240Z,9.50
2023-02-19T04:02:12.374Z,10.27
2023-02-19T04:04:53.917Z,10.60
2023-02-19T04:07:37.949Z,10.43
2023-02-19T04:10:21.986Z,10.57
2023-02-19T04:13:07.878Z,11.30
2023-02-19T04:16:07.869Z,11.20
2023-02-19T04:18:58.031Z,11.63
2023-02-19T04:21:36.854Z,10.87
2023-02-19T04:24:18.976Z,10.83
2023-02-19T04:26:58.438Z,10.10
2023-02-19T04:29:41.742Z,11.07
2023-02-19T04:32:19.686Z,10.23
2023-02-19T04:34:59.455Z,9.80
2023-02-19T04:37:38.402Z,10.07
2023-02-19T04:40:15.664Z,10.13
2023-02-19T04:42:51.869Z,9.20
2023-02-19T04:45:38.841Z,9.50
2023-02-19T04:48:15.203Z,10.37
2023-02-19T04:50:56.300Z,10.33
2023-02-19T04:53:32.875Z,10.30
2023-02-19T04:56:14.673Z,9.47
2023-02-19T04:58:51.273Z,10.60
2023-02-19T05:01:30.175Z,9.70
2023-02-19T05:04:06.433Z,10.20
2023-02-19T05:06:42.843Z,10.33
2023-02-19T05:09:19.935Z,9.97
2023-02-19T05:12:00.041Z,10.17
2023-02-19T05:14:37.309Z,9.87
2023-02-19T05:17:18.171Z,9.87
2023-02-19T05:19:54.239Z,10.40
2023-02-19T05:22:30.471Z,10.40
2023-02-19T05:25:06.780Z,10.97
2023-02-19T05:27:43.378Z,10.13
2023-02-19T05:30:19.832Z,10.20
2023-02-19T05:32:58.331Z,10.00
2023-02-19T05:35:34.586Z,10.83
2023-02-19T05:38:10.638Z,11.17
2023-02-19T05:40:52.569Z,10.70
2023-02-19T05:43:29.078Z,10.83
2023-02-19T05:46:08.421Z,10.60
2023-02-19T05:48:48.748Z,11.27
2023-02-19T05:51:28.348Z,10.80
2023-02-19T05:54:04.729Z,10.90
2023-02-19T05:56:45.571Z,10.70
2023-02-19T05:59:24.606Z,11.10
2023-02-19T06:02:03.573Z,10.90
2023-02-19T06:04:43.797Z,10.73
2023-02-19T06:07:20.231Z,10.97
2023-02-19T06:09:58.634Z,11.20
2023-02-19T06:12:35.002Z,10.60
2023-02-19T06:15:12.702Z,10.40
2023-02-19T06:17:51.640Z,11.60
2023-02-19T06:20:34.669Z,10.73
2023-02-19T06:23:12.461Z,11.33
2023-02-19T06:25:50.393Z,11.87
2023-02-19T06:28:35.096Z,11.43
2023-02-19T06:31:14.332Z,11.27
2023-02-19T06:33:52.207Z,11.00
2023-02-19T06:36:31.338Z,11.17
2023-02-19T06:39:08.450Z,11.53
2023-02-19T06:41:45.666Z,11.40
2023-02-19T06:44:29.605Z,11.77
2023-02-19T06:47:05.740Z,10.50
2023-02-19T06:49:41.985Z,10.40
2023-02-19T06:52:25.562Z,11.93
2023-02-19T06:55:03.710Z,11.70
2023-02-19T06:57:40.165Z,11.67
2023-02-19T07:00:19.870Z,11.33
2023-02-19T07:03:00.355Z,11.63
2023-02-19T07:05:36.092Z,12.00
2023-02-19T07:08:16.147Z,11.67
2023-02-19T07:10:59.684Z,12.23
2023-02-19T07:13:37.709Z,12.80
2023-02-19T07:16:15.674Z,12.07
2023-02-19T07:18:53.775Z,12.43
2023-02-19T07:21:33.165Z,12.47
2023-02-19T07:24:13.220Z,13.37
2023-02-19T07:26:49.471Z,13.77
2023-02-19T07:29:26.707Z,12.87
2023-02-19T07:32:03.386Z,12.53
2023-02-19T07:34:41.929Z,12.87
2023-02-19T07:37:18.592Z,12.43
2023-02-19T07:40:01.570Z,13.60
2023-02-19T07:42:39.163Z,12.60
2023-02-19T07:45:17.676Z,13.67
2023-02-19T07:47:56.082Z,13.00
2023-02-19T07:50:32.383Z,13.17
2023-02-19T07:53:11.337Z,13.70
2023-02-19T07:55:50.186Z,13.00
2023-02-19T07:58:27.230Z,12.77
2023-02-19T08:01:11.373Z,13.33
2023-02-19T08:03:55.654Z,13.90
2023-02-19T08:06:32.399Z,13.50
2023-02-19T08:09:14.012Z,13.30
2023-02-19T08:12:07.795Z,13.87
2023-02-19T08:14:45.528Z,12.90
2023-02-19T08:17:28.105Z,13.87
2023-02-19T08:20:10.148Z,13.37
2023-02-19T08:22:46.764Z,13.70
2023-02-19T08:25:25.790Z,13.97
2023-02-19T08:28:05.785Z,12.90
2023-02-19T08:30:43.086Z,14.07
2023-02-19T08:33:20.596Z,13.73
2023-02-19T08:35:56.621Z,13.67
2023-02-19T08:38:39.408Z,14.63
2023-02-19T08:41:19.150Z,14.23
2023-02-19T08:44:02.179Z,14.03
2023-02-19T08:46:44.113Z,14.10
2023-02-19T08:49:22.802Z,14.07
2023-02-19T08:52:01.735Z,14.63
2023-02-19T08:54:38.028Z,13.80
2023-02-19T08:57:15.622Z,13.90
2023-02-19T09:00:00.567Z,14.50
2023-02-19T09:02:42.007Z,13.93
2023-02-19T09:05:21.091Z,13.90
2023-02-19T09:07:57.716Z,14.07
2023-02-19T09:10:42.471Z,14.77
2023-02-19T09:13:24.487Z,13.90
2023-02-19T09:16:03.525Z,13.80
2023-02-19T09:18:40.896Z,15.03
2023-02-19T09:21:24.802Z,16.03
2023-02-19T09:24:01.807Z,16.93
2023-02-19T09:26:38.755Z,15.70
2023-02-19T09:29:22.149Z,14.50
2023-02-19T09:32:07.994Z,15.67
2023-02-19T09:34:54.398Z,14.43
2023-02-19T09:37:36.457Z,15.03
2023-02-19T09:40:13.189Z,14.23
2023-02-19T09:42:51.186Z,13.80
2023-02-19T09:45:31.072Z,13.67
2023-02-19T09:48:12.014Z,14.20
2023-02-19T09:50:52.047Z,14.97
2023-02-19T09:53:32.153Z,15.47
2023-02-19T09:56:11.036Z,16.20
2023-02-19T09:58:56.973Z,15.83
2023-02-19T10:01:38.985Z,15.17
2023-02-19T10:04:17.933Z,14.67
2023-02-19T10:07:00.814Z,14.43
2023-02-19T10:09:39.831Z,15.23
2023-02-19T10:12:24.009Z,15.30
2023-02-19T10:15:05.148Z,16.03
2023-02-19T10:17:42.391Z,14.90
2023-02-19T10:20:26.261Z,15.43
2023-02-19T10:23:08.654Z,14.43
2023-02-19T10:25:52.796Z,14.87
2023-02-19T10:28:33.767Z,14.90
2023-02-19T10:31:23.824Z,15.23
2023-02-19T10:34:04.483Z,15.13
2023-02-19T10:36:53.915Z,14.63
2023-02-19T10:39:50.329Z,15.13
2023-02-19T10:42:30.683Z,15.73
2023-02-19T10:45:10.024Z,15.70
2023-02-19T10:47:53.036Z,15.43
2023-02-19T10:50:35.746Z,15.83
2023-02-19T10:53:33.149Z,15.60
2023-02-19T10:56:17.376Z,14.87
2023-02-19T10:58:55.299Z,15.57
2023-02-19T11:01:45.228Z,14.20
2023-02-19T11:04:27.408Z,14.17
2023-02-19T11:07:16.380Z,13.97
2023-02-19T11:10:06.935Z,14.50
2023-02-19T11:12:43.936Z,14.43
2023-02-19T11:15:29.138Z,14.33
2023-02-19T11:18:22.226Z,15.03
2023-02-19T11:20:59.676Z,14.70
2023-02-19T11:23:48.793Z,14.53
2023-02-19T11:26:29.817Z,15.53
2023-02-19T11:29:08.241Z,17.43
2023-02-19T11:31:48.521Z,16.57
2023-02-19T11:34:36.700Z,15.13
2023-02-19T11:37:20.392Z,14.70
2023-02-19T11:39:57.771Z,16.13
2023-02-19T11:42:57.286Z,15.17
2023-02-19T11:45:43.259Z,14.93
2023-02-19T11:48:39.416Z,15.50
2023-02-19T11:51:54.653Z,15.30
2023-02-19T11:54:50.675Z,16.97
2023-02-19T11:57:49.603Z,16.23
2023-02-19T12:00:43.608Z,16.40
2023-02-19T12:03:51.811Z,16.47
2023-02-19T12:06:40.189Z,16.60
2023-02-19T12:09:29.500Z,16.27
2023-02-19T12:12:37.894Z,20.83
2023-02-19T12:15:47.814Z,16.53
2023-02-19T12:19:07.417Z,16.47
2023-02-19T12:22:06.555Z,16.07
2023-02-19T12:25:19.986Z,17.40
2023-02-19T12:28:12.415Z,17.53
2023-02-19T12:31:16.209Z,18.60
2023-02-19T12:34:26.426Z,17.40
2023-02-19T12:37:18.040Z,17.50
2023-02-19T12:40:04.889Z,18.20
2023-02-19T12:42:56.735Z,18.43
2023-02-19T12:45:40.093Z,19.03
2023-02-19T12:48:25.114Z,19.47
2023-02-19T12:51:08.038Z,18.73
2023-02-19T12:53:50.267Z,18.27
2023-02-19T12:56:32.796Z,18.93
2023-02-19T12:59:16.964Z,18.93
2023-02-19T13:02:02.023Z,18.60
2023-02-19T13:04:55.922Z,18.93
2023-02-19T13:07:38.791Z,19.10
2023-02-19T13:10:39.521Z,18.67
2023-02-19T13:13:34.251Z,19.00
2023-02-19T13:16:18.713Z,19.97
2023-02-19T13:19:05.437Z,19.80
2023-02-19T13:22:14.567Z,20.77
2023-02-19T13:24:57.364Z,18.40
2023-02-19T13:28:04.985Z,19.23
2023-02-19T13:31:07.715Z,19.43
2023-02-19T13:37:07.024Z,17.63
2023-02-19T13:39:55.485Z,17.60
2023-02-19T13:42:45.330Z,16.67
2023-02-19T13:45:35.595Z,17.50
2023-02-19T13:48:31.073Z,18.60
2023-02-19T13:51:43.772Z,18.57
2023-02-19T13:54:32.923Z,17.37
2023-02-19T13:57:33.321Z,18.03
2023-02-19T14:00:56.605Z,19.00
2023-02-19T14:03:45.392Z,19.93
2023-02-19T14:06:28.720Z,19.00
2023-02-19T14:09:10.351Z,19.40
2023-02-19T14:12:23.907Z,17.73
2023-02-19T14:15:31.552Z,17.93
2023-02-19T14:18:09.436Z,17.93
2023-02-19T14:20:54.013Z,18.67
2023-02-19T14:23:34.161Z,18.50
2023-02-19T14:26:13.758Z,18.63
2023-02-19T14:29:06.487Z,18.57
2023-02-19T14:31:46.983Z,17.87
2023-02-19T14:34:25.313Z,18.10
2023-02-19T14:37:23.013Z,17.97
2023-02-19T14:40:03.748Z,17.10
2023-02-19T14:42:47.050Z,18.23
2023-02-19T14:45:30.319Z,17.20
2023-02-19T14:48:10.352Z,17.53
2023-02-19T14:50:48.658Z,18.27
2023-02-19T14:53:40.895Z,18.73
2023-02-19T14:56:28.429Z,19.47
2023-02-19T14:59:29.809Z,19.90
2023-02-19T15:02:22.219Z,19.93
2023-02-19T15:04:59.894Z,20.93
2023-02-19T15:07:49.781Z,20.73
2023-02-19T15:10:35.252Z,19.87
2023-02-19T15:13:18.832Z,19.17
2023-02-19T15:15:57.275Z,19.27
2023-02-19T15:18:44.213Z,20.00
2023-02-19T15:21:29.818Z,20.00
2023-02-19T15:24:12.818Z,20.07
2023-02-19T15:26:57.928Z,21.07
2023-02-19T15:29:45.544Z,20.70
2023-02-19T15:32:30.266Z,19.40
2023-02-19T15:35:13.040Z,19.30
2023-02-19T15:37:50.897Z,19.30
2023-02-19T15:40:39.169Z,19.73
2023-02-19T15:43:32.364Z,18.97
2023-02-19T15:46:15.667Z,19.90
2023-02-19T15:49:06.599Z,19.07
2023-02-19T15:52:04.393Z,20.23
2023-02-19T15:54:50.529Z,19.93
2023-02-19T15:57:33.053Z,20.03
2023-02-19T16:00:18.670Z,19.37
2023-02-19T16:02:58.161Z,20.33
2023-02-19T16:05:41.658Z,20.10
2023-02-19T16:08:52.563Z,21.00
2023-02-19T16:11:44.204Z,22.27
2023-02-19T16:14:38.862Z,23.07
2023-02-19T16:17:40.680Z,22.17
2023-02-19T16:20:26.792Z,23.23
2023-02-19T16:23:13.102Z,24.40
2023-02-19T16:26:02.009Z,24.43
2023-02-19T16:28:45.132Z,23.10
2023-02-19T16:31:25.940Z,23.80
2023-02-19T16:34:22.078Z,23.27
2023-02-19T16:36:59.720Z,25.03
2023-02-19T16:39:45.151Z,23.77
2023-02-19T16:42:24.011Z,23.80
2023-02-19T16:45:07.030Z,23.90
2023-02-19T16:47:49.947Z,24.53
2023-02-19T16:50:36.741Z,25.20
2023-02-19T16:53:26.379Z,24.70
2023-02-19T16:56:06.392Z,24.93
2023-02-19T16:58:52.723Z,24.43
2023-02-19T17:01:31.280Z,26.07
2023-02-19T17:04:12.648Z,24.67
2023-02-19T17:06:51.596Z,24.27
2023-02-19T17:09:27.850Z,24.57
2023-02-19T17:12:03.963Z,23.60
2023-02-19T17:14:43.530Z,23.53
2023-02-19T17:17:19.974Z,24.50
2023-02-19T17:20:22.870Z,24.57
2023-02-19T17:23:04.070Z,23.60
2023-02-19T17:25:41.831Z,24.37
2023-02-19T17:28:18.347Z,25.10
2023-02-19T17:30:59.986Z,24.37
2023-02-19T17:33:36.901Z,23.97
2023-02-19T17:36:13.614Z,24.20
2023-02-19T17:38:51.985Z,24.37
2023-02-19T17:41:32.859Z,24.33
2023-02-19T17:44:09.629Z,24.60
2023-02-19T17:46:54.127Z,24.43
2023-02-19T17:49:31.001Z,24.50
2023-02-19T17:52:14.667Z,25.03
2023-02-19T17:54:50.780Z,23.63
2023-02-19T17:57:27.945Z,24.60
2023-02-19T18:00:06.077Z,24.50
2023-02-19T18:02:50.872Z,24.40
2023-02-19T18:05:29.439Z,24.47
2023-02-19T18:08:07.035Z,24.97
2023-02-19T18:10:44.801Z,23.37
2023-02-19T18:13:22.811Z,24.20
2023-02-19T18:15:58.864Z,26.00
2023-02-19T18:18:37.490Z,24.30
2023-02-19T18:21:27.626Z,24.43
2023-02-19T18:24:03.943Z,24.67
2023-02-19T18:26:39.455Z,23.73
2023-02-19T18:29:18.060Z,24.83
2023-02-19T18:31:54.988Z,25.93
2023-02-19T18:34:32.907Z,25.00
2023-02-19T18:37:09.344Z,24.53
2023-02-19T18:39:45.887Z,25.70
2023-02-19T18:42:22.230Z,25.33
2023-02-19T18:44:58.732Z,25.73
2023-02-19T18:47:34.590Z,25.33
2023-02-19T18:50:13.522Z,25.80
2023-02-19T18:52:50.512Z,26.07
2023-02-19T18:55:26.476Z,24.53
2023-02-19T18:58:03.549Z,26.07
2023-02-19T19:00:39.129Z,24.77
2023-02-19T19:03:14.659Z,26.70
2023-02-19T19:05:54.690Z,27.47
2023-02-19T19:08:30.823Z,28.80
2023-02-19T19:11:06.592Z,28.10
2023-02-19T19:13:44.103Z,28.63
2023-02-19T19:16:20.091Z,28.63
2023-02-19T19:18:55.823Z,27.57
2023-02-19T19:21:33.130Z,28.53
2023-02-19T19:24:08.717Z,27.70
2023-02-19T19:26:50.333Z,28.67
2023-02-19T19:29:28.632Z,29.40
2023-02-19T19:32:05.646Z,27.53
2023-02-19T19:34:42.092Z,30.43
2023-02-19T19:37:23.320Z,29.80
2023-02-19T19:39:59.785Z,29.53
2023-02-19T19:42:50.053Z,28.70
2023-02-19T19:45:25.380Z,29.27
2023-02-19T19:48:00.410Z,30.87
2023-02-19T19:50:35.353Z,29.33
2023-02-19T19:53:13.067Z,29.40
2023-02-19T19:55:48.609Z,29.40
2023-02-19T19:58:26.177Z,28.50
2023-02-19T20:01:03.045Z,29.30
2023-02-19T20:03:38.108Z,29.63
2023-02-19T20:06:13.590Z,28.30
2023-02-19T20:08:50.970Z,29.40
2023-02-19T20:11:26.226Z,30.00
2023-02-19T20:14:19.215Z,29.57
2023-02-19T20:16:54.230Z,31.17
2023-02-19T20:19:29.201Z,29.83
2023-02-19T20:22:03.797Z,31.33
2023-02-19T20:24:40.899Z,30.17
2023-02-19T20:27:15.830Z,29.93
2023-02-19T20:29:51.123Z,31.47
2023-02-19T20:32:26.096Z,31.03
2023-02-19T20:35:01.168Z,30.23
2023-02-19T20:37:36.362Z,31.40
2023-02-19T20:40:15.857Z,31.07
2023-02-19T20:42:53.136Z,32.23
2023-02-19T20:45:29.085Z,31.13
2023-02-19T20:48:04.086Z,30.90
2023-02-19T20:50:39.642Z,32.27
2023-02-19T20:53:14.798Z,31.80
2023-02-19T20:55:51.584Z,31.57
2023-02-19T20:58:26.827Z,32.27
2023-02-19T21:01:00.954Z,31.37
2023-02-19T21:03:35.565Z,31.37
2023-02-19T21:06:11.150Z,31.73
2023-02-19T21:08:46.398Z,32.90
2023-02-19T21:11:23.341Z,31.27
2023-02-19T21:14:00.967Z,32.70
2023-02-19T21:16:37.242Z,32.20
2023-02-19T21:19:12.131Z,32.53
2023-02-19T21:21:47.053Z,31.20
2023-02-19T21:24:21.263Z,31.33
2023-02-19T21:26:57.348Z,31.30
2023-02-19T21:29:32.256Z,31.87
2023-02-19T21:32:07.783Z,31.50
2023-02-19T21:34:42.879Z,31.43
2023-02-19T21:37:17.381Z,31.57
2023-02-19T21:39:52.390Z,31.83
2023-02-19T21:42:29.612Z,31.53
2023-02-19T21:45:05.025Z,31.10
2023-02-19T21:47:42.554Z,31.10
2023-02-19T21:50:18.333Z,29.83
2023-02-19T21:52:53.869Z,29.73
2023-02-19T21:55:28.768Z,31.97
2023-02-19T21:58:05.971Z,30.50
2023-02-19T22:00:41.192Z,30.77
2023-02-19T22:03:20.641Z,30.97
2023-02-19T22:05:56.218Z,31.40
2023-02-19T22:08:31.803Z,31.00
2023-02-19T22:11:07.205Z,29.73
2023-02-19T22:13:44.657Z,30.97
2023-02-19T22:16:20.674Z,31.23
2023-02-19T22:18:57.587Z,29.23
2023-02-19T22:21:36.215Z,28.90
2023-02-19T22:24:12.238Z,29.33
2023-02-19T22:26:49.452Z,29.63
2023-02-19T22:29:27.281Z,29.30
2023-02-19T22:32:04.333Z,31.63
2023-02-19T22:34:43.873Z,29.60
2023-02-19T22:37:19.035Z,30.20
2023-02-19T22:39:55.017Z,29.37
2023-02-19T22:42:31.160Z,29.53
2023-02-19T22:45:10.012Z,30.17
2023-02-19T22:47:46.004Z,29.17
2023-02-19T22:50:27.879Z,30.43
2023-02-19T22:53:04.016Z,30.20
2023-02-19T22:55:39.358Z,28.40
2023-02-19T22:58:14.657Z,30.13
2023-02-19T23:00:52.552Z,29.53
2023-02-19T23:03:28.441Z,29.57
2023-02-19T23:06:07.384Z,28.97
2023-02-19T23:08:43.885Z,29.40
2023-02-19T23:11:25.090Z,29.40
2023-02-19T23:14:00.607Z,31.00
2023-02-19T23:16:39.300Z,29.03
2023-02-19T23:19:18.958Z,31.03
2023-02-19T23:21:55.025Z,30.93
2023-02-19T23:24:31.093Z,31.60
2023-02-19T23:27:06.746Z,31.80
2023-02-19T23:29:41.672Z,33.00
2023-02-19T23:32:22.204Z,31.90
2023-02-19T23:34:57.527Z,31.60
2023-02-19T23:37:33.498Z,32.10
2023-02-19T23:40:10.055Z,31.47
2023-02-19T23:42:46.236Z,31.47
2023-02-19T23:45:22.906Z,31.20
2023-02-19T23:48:00.797Z,30.80
2023-02-19T23:50:40.477Z,32.13
2023-02-19T23:53:17.195Z,33.43
2023-02-19T23:55:53.087Z,32.10
2023-02-19T23:58:30.135Z,32.60
